Asert, OR

8:33 PM PST on February 06, 2016 (GMT -0800)
Hogan and Roberts | | Change Station
CLOSE
Current Station
Personal Weather Station
Location: Gresham, OR
Elevation: 384 ft
Nearby Weather Stations

Elev 384 ft 45.49 °N, 122.42 °W | Updated 1 minute ago

Mostly Cloudy
Mostly Cloudy
43.9 °F
Feels Like 44 °F
N
0.0
Wind Variable Wind from NNW
Gusts 0.0 mph

Today
High -- | Low -- °F
--% Chance of Precip.
Yesterday
High -- | Low -- °F
Precip. -- in
Pressure 30.42 in
Visibility 10.0 miles
Clouds Scattered Clouds 11000 ft
Windchill 44 °F
Dew Point 29 °F
Humidity 56%
Rainfall 0.00 in
Snow Depth Not available.
7:24 AM 5:23 PM
Waning Crescent, 3% visible
METAR KTTD 070353Z 10003KT 10SM SCT110 08/03 A3042 RMK AO2 SLP301 T00830033
Pressure 30.42 in
Visibility 10.0 miles
Clouds Scattered Clouds 11000 ft
Windchill 44 °F
Dew Point 29 °F
Humidity 56%
Rainfall 0.00 in
Snow Depth Not available.
7:24 AM 5:23 PM
Waning Crescent, 3% visible
METAR KTTD 070353Z 10003KT 10SM SCT110 08/03 A3042 RMK AO2 SLP301 T00830033

10-Day Weather Forecast

Almanac

Astronomy

Feb. 06, 2016 Rise Set
Actual Time
Civil Twilight
Nautical Twilight
Astronomical Twilight
Moon
Length of Visible Light
Length of Day
Tomorrow will be .
, % of the Moon is Illuminated

Today's Extremes

State Highs State Lows

Community

WunderPhotos

Upload Photos

1,891,157 photos uploaded!

WunderBlog® & News

Nearby

Air Quality

  Air Quality AQ Index Pollutant
Not available.

Snow Depth

Station Depth Elevation

Earthquake Activity

City Distance Mag. Time & Date
Minimum magnitude displayed is 2.5.

Coastal Water Temperatures

Place Temperature

Stations

Nearby Weather Stations

Station Location Temp. Windchill Dew Point Humidity Wind Precip. Elev Updated Type
                   

Watches & Warnings

There are currently no watches in effect.